Time;durP1;ratioP1;P1;durP2;ratioP2;P2;SDS_P1;SDS_P2;PMS_P1;PMS_P2;Temp;Humidity;BMP_temperature;BMP_pressure;BME280_temperature;BME280_humidity;BME280_pressure;Samples;Min_cycle;Max_cycle;Signal;HPM_P1;HPM_P2
2022/12/12 00:02:15;;;;;;;;;;;0.60;99.90;;;;;;4953611;29;20306;-77
2022/12/12 00:04:41;;;;;;;;;;;-1.20;99.90;;;;;;4954131;28;19923;-77
2022/12/12 00:07:07;;;;;;;;;;;-1.30;99.90;;;;;;4953764;29;19986;-77
2022/12/12 00:09:32;;;;;;;;;;;-1.30;99.90;;;;;;4952237;28;20008;-77
2022/12/12 00:11:58;;;;;;;;;;;-1.30;99.90;;;;;;4954645;29;19966;-76
2022/12/12 00:14:23;;;;;;;;;;;0.00;99.90;;;;;;4954603;29;19922;-77
2022/12/12 00:16:49;;;;;;;;;;;-1.20;99.90;;;;;;4952644;29;19922;-76
2022/12/12 00:19:14;;;;;;;;;;;0.00;99.90;;;;;;4953998;29;19930;-77
2022/12/12 00:21:40;;;;;;;;;;;-1.30;99.90;;;;;;4956744;28;19925;-77
2022/12/12 00:24:06;;;;;;;;;;;-1.40;99.90;;;;;;4957492;28;19998;-77
2022/12/12 00:26:32;;;;;;;;;;;-1.40;99.90;;;;;;4957739;29;19922;-77
2022/12/12 00:28:59;;;;;;;;;;;-1.50;99.90;;;;;;4956875;29;20279;-77
2022/12/12 00:31:24;;;;;;;;;;;-1.50;99.90;;;;;;4955569;29;19929;-77
2022/12/12 00:33:50;;;;;;;;;;;-1.50;99.90;;;;;;4958134;29;19918;-77
2022/12/12 00:36:34;;;;;;;;;;;-1.60;99.90;;;;;;4957523;28;20286;-76
2022/12/12 00:39:02;;;;;;;;;;;-1.60;99.90;;;;;;4957379;29;19922;-76
2022/12/12 00:41:28;;;;;;;;;;;0.30;99.90;;;;;;4957141;29;19926;-76
2022/12/12 00:43:53;;;;;;;;;;;-1.50;99.90;;;;;;4956538;29;19969;-76
2022/12/12 00:46:21;;;;;;;;;;;-0.50;99.90;;;;;;4955712;28;20338;-76
2022/12/12 00:48:46;;;;;;;;;;;-1.10;99.90;;;;;;4957602;28;20374;-76
2022/12/12 00:51:15;;;;;;;;;;;-1.40;99.90;;;;;;4957463;29;19929;-76
2022/12/12 00:53:41;;;;;;;;;;;-1.30;99.90;;;;;;4955688;29;19923;-77
2022/12/12 00:56:06;;;;;;;;;;;-1.30;99.90;;;;;;4957384;28;20032;-77
2022/12/12 00:58:32;;;;;;;;;;;-1.30;99.90;;;;;;4956894;29;19996;-77
2022/12/12 01:01:05;;;;;;;;;;;-1.20;99.90;;;;;;4956800;28;19980;-77
2022/12/12 01:03:33;;;;;;;;;;;-0.40;99.90;;;;;;4957109;28;20305;-77
2022/12/12 01:05:59;;;;;;;;;;;-1.20;99.90;;;;;;4955119;29;19926;-77
2022/12/12 01:08:25;;;;;;;;;;;-1.20;99.90;;;;;;4957818;29;20299;-77
2022/12/12 01:10:50;;;;;;;;;;;-1.10;99.90;;;;;;4956449;29;19985;-77
2022/12/12 01:13:16;;;;;;;;;;;-1.10;99.90;;;;;;4956219;29;20370;-76
2022/12/12 01:15:41;;;;;;;;;;;-1.10;99.90;;;;;;4956229;29;20396;-76
2022/12/12 01:18:07;;;;;;;;;;;-1.00;99.90;;;;;;4957629;28;20013;-77
2022/12/12 01:20:33;;;;;;;;;;;-1.10;99.90;;;;;;4956079;29;19934;-77
2022/12/12 01:22:58;;;;;;;;;;;-1.10;99.90;;;;;;4957300;28;19926;-76
2022/12/12 01:25:24;;;;;;;;;;;-1.00;99.90;;;;;;4955806;29;19930;-76
2022/12/12 01:27:50;;;;;;;;;;;-1.00;99.90;;;;;;4955812;28;19923;-76
2022/12/12 01:30:17;;;;;;;;;;;-0.90;99.90;;;;;;4956441;29;19922;-76
2022/12/12 01:32:43;;;;;;;;;;;-0.90;99.90;;;;;;4955972;28;20399;-76
2022/12/12 01:35:11;;;;;;;;;;;-0.70;99.90;;;;;;4956269;28;19928;-77
2022/12/12 01:37:38;;;;;;;;;;;-0.70;99.90;;;;;;4956690;29;19929;-77
2022/12/12 01:40:05;;;;;;;;;;;1.20;99.90;;;;;;4956988;29;20413;-77
2022/12/12 01:42:30;;;;;;;;;;;-0.50;99.90;;;;;;4955349;28;20294;-76
2022/12/12 01:44:56;;;;;;;;;;;-0.50;99.90;;;;;;4955783;29;19981;-76
2022/12/12 01:47:25;;;;;;;;;;;-0.50;99.90;;;;;;4956513;29;19923;-76
2022/12/12 01:49:59;;;;;;;;;;;-0.50;99.90;;;;;;4955632;28;19985;-77
2022/12/12 01:52:29;;;;;;;;;;;-0.40;99.90;;;;;;4954661;29;19922;-76
2022/12/12 01:54:57;;;;;;;;;;;-0.40;99.90;;;;;;4956534;28;20290;-76
2022/12/12 01:57:35;;;;;;;;;;;0.00;99.90;;;;;;4953920;29;19930;-76
2022/12/12 02:00:01;;;;;;;;;;;-0.50;99.90;;;;;;4956621;28;19958;-76
2022/12/12 02:02:27;;;;;;;;;;;0.10;99.90;;;;;;4955070;29;20421;-76
2022/12/12 02:04:52;;;;;;;;;;;-0.40;99.90;;;;;;4955710;29;20020;-76
2022/12/12 02:07:18;;;;;;;;;;;-0.30;99.90;;;;;;4956035;29;19929;-76
2022/12/12 02:09:45;;;;;;;;;;;-0.30;99.90;;;;;;4956196;29;20064;-75
2022/12/12 02:12:11;;;;;;;;;;;-0.30;99.90;;;;;;4956775;28;19922;-75
2022/12/12 02:14:39;;;;;;;;;;;-0.40;99.90;;;;;;4955750;28;20366;-76
2022/12/12 02:17:24;;;;;;;;;;;-0.30;99.90;;;;;;4955566;28;19977;-76
2022/12/12 02:19:53;;;;;;;;;;;-0.30;99.90;;;;;;4954783;28;19922;-76
2022/12/12 02:22:21;;;;;;;;;;;-0.30;99.90;;;;;;4954678;29;19926;-76
2022/12/12 02:25:00;;;;;;;;;;;-0.70;99.90;;;;;;4955228;29;20392;-76
2022/12/12 02:27:52;;;;;;;;;;;-0.30;99.90;;;;;;4953790;29;19930;-76
2022/12/12 02:30:20;;;;;;;;;;;-0.30;99.90;;;;;;4954931;28;19977;-76
2022/12/12 02:32:49;;;;;;;;;;;0.20;99.90;;;;;;4955797;28;19922;-76
2022/12/12 02:35:33;;;;;;;;;;;-0.30;99.90;;;;;;4956151;29;19930;-75
2022/12/12 02:38:22;;;;;;;;;;;-0.30;99.90;;;;;;4953891;29;19934;-76
2022/12/12 02:40:50;;;;;;;;;;;-0.30;99.90;;;;;;4952829;29;19929;-76
2022/12/12 02:43:29;;;;;;;;;;;-0.30;99.90;;;;;;4954600;28;20293;-76
2022/12/12 02:45:58;;;;;;;;;;;-0.30;99.90;;;;;;4954056;29;19929;-76
2022/12/12 02:48:26;;;;;;;;;;;-0.20;99.90;;;;;;4955687;28;20274;-76
2022/12/12 02:50:53;;;;;;;;;;;-0.20;99.90;;;;;;4955652;29;19970;-75
2022/12/12 02:53:19;;;;;;;;;;;1.30;99.90;;;;;;4954715;28;19965;-75
2022/12/12 02:55:45;;;;;;;;;;;-0.20;99.90;;;;;;4955754;28;19929;-76
2022/12/12 02:58:12;;;;;;;;;;;-0.20;99.90;;;;;;4955683;28;19922;-76
2022/12/12 03:00:50;;;;;;;;;;;-0.30;99.90;;;;;;4954080;29;19988;-76
2022/12/12 03:09:23;;;;;;;;;;;-0.20;99.90;;;;;;4955158;29;19923;-76
2022/12/12 03:12:05;;;;;;;;;;;-0.20;99.90;;;;;;4955450;29;19929;-76
2022/12/12 03:14:42;;;;;;;;;;;-0.20;99.90;;;;;;4954470;28;19923;-76
2022/12/12 03:17:27;;;;;;;;;;;-0.20;99.90;;;;;;4953295;29;19966;-76
2022/12/12 03:20:02;;;;;;;;;;;-0.20;99.90;;;;;;4954893;28;20006;-76
2022/12/12 03:22:31;;;;;;;;;;;-0.30;99.90;;;;;;4953832;28;20410;-76
2022/12/12 03:25:04;;;;;;;;;;;-0.40;99.90;;;;;;4954445;29;19923;-76
2022/12/12 03:27:38;;;;;;;;;;;-0.50;99.90;;;;;;4952526;29;19993;-76
2022/12/12 03:30:09;;;;;;;;;;;-0.40;99.90;;;;;;4955513;28;19922;-76
2022/12/12 03:32:38;;;;;;;;;;;-0.50;99.90;;;;;;4954595;28;19918;-76
2022/12/12 03:35:24;;;;;;;;;;;-0.60;99.90;;;;;;4954528;28;19923;-76
2022/12/12 03:38:00;;;;;;;;;;;-0.70;99.90;;;;;;4953560;29;19929;-76
2022/12/12 03:40:36;;;;;;;;;;;-0.70;99.90;;;;;;4954634;28;19922;-77
2022/12/12 03:43:05;;;;;;;;;;;-0.80;99.90;;;;;;4955366;29;19962;-76
2022/12/12 03:45:46;;;;;;;;;;;-0.80;99.90;;;;;;4955026;29;20389;-76
2022/12/12 03:48:22;;;;;;;;;;;-0.90;99.90;;;;;;4954386;29;19923;-76
2022/12/12 03:50:51;;;;;;;;;;;-0.90;99.90;;;;;;4954852;29;19922;-76
2022/12/12 03:53:23;;;;;;;;;;;0.70;99.90;;;;;;4954258;28;19929;-76
2022/12/12 03:55:53;;;;;;;;;;;-0.90;99.90;;;;;;4956045;28;20013;-76
2022/12/12 03:58:42;;;;;;;;;;;-0.90;99.90;;;;;;4957919;29;19930;-75
2022/12/12 04:01:09;;;;;;;;;;;-0.90;99.90;;;;;;4953232;29;19940;-76
2022/12/12 04:03:38;;;;;;;;;;;-1.00;99.90;;;;;;4955698;29;19922;-77
2022/12/12 04:06:28;;;;;;;;;;;-0.90;99.90;;;;;;4959305;29;20377;-76
2022/12/12 04:15:03;;;;;;;;;;;-0.90;99.90;;;;;;4958657;29;20340;-77
2022/12/12 04:17:38;;;;;;;;;;;-0.90;99.90;;;;;;4956432;28;19926;-77
2022/12/12 04:23:25;;;;;;;;;;;-0.90;99.90;;;;;;4956328;28;20430;-76
2022/12/12 04:28:39;;;;;;;;;;;-1.00;99.90;;;;;;4957904;29;19922;-77
2022/12/12 04:31:05;;;;;;;;;;;-1.00;99.90;;;;;;4957020;29;19965;-76
2022/12/12 04:33:36;;;;;;;;;;;-0.90;99.90;;;;;;4957635;28;20370;-77
2022/12/12 04:36:03;;;;;;;;;;;-1.00;99.90;;;;;;4958537;28;19930;-77
2022/12/12 04:38:29;;;;;;;;;;;-1.10;99.90;;;;;;4956834;28;19922;-77
2022/12/12 04:40:56;;;;;;;;;;;-0.80;99.90;;;;;;4957835;29;19930;-77
2022/12/12 04:43:32;;;;;;;;;;;-1.10;99.90;;;;;;4957172;29;19958;-76
2022/12/12 04:46:06;;;;;;;;;;;-1.10;99.90;;;;;;4956690;28;19926;-76
2022/12/12 04:48:35;;;;;;;;;;;-1.20;99.90;;;;;;4956616;29;19922;-76
2022/12/12 04:51:01;;;;;;;;;;;-1.20;99.90;;;;;;4956722;29;19929;-73
2022/12/12 04:53:31;;;;;;;;;;;-1.30;99.90;;;;;;4956597;29;20013;-75
2022/12/12 04:55:58;;;;;;;;;;;-1.30;99.90;;;;;;4954980;29;20262;-82
2022/12/12 04:58:24;;;;;;;;;;;-1.00;99.90;;;;;;4956353;28;19926;-77
2022/12/12 05:01:06;;;;;;;;;;;-1.40;99.90;;;;;;4957921;28;20279;-77
2022/12/12 05:03:40;;;;;;;;;;;-1.30;99.90;;;;;;4956926;28;19929;-77
2022/12/12 05:06:07;;;;;;;;;;;-1.40;99.90;;;;;;4956583;28;20017;-78
2022/12/12 05:08:47;;;;;;;;;;;-1.40;99.90;;;;;;4957008;28;20406;-78
2022/12/12 05:11:13;;;;;;;;;;;-1.50;99.90;;;;;;4956917;28;19929;-76
2022/12/12 05:13:40;;;;;;;;;;;-1.50;99.90;;;;;;4955358;28;20017;-79
2022/12/12 05:16:14;;;;;;;;;;;-1.50;99.90;;;;;;4956910;29;19926;-80
2022/12/12 05:18:39;;;;;;;;;;;-1.60;99.90;;;;;;4957156;29;19929;-75
2022/12/12 05:21:05;;;;;;;;;;;0.10;99.90;;;;;;4956343;29;19922;-76
2022/12/12 05:23:30;;;;;;;;;;;-1.60;99.90;;;;;;4956241;29;19958;-76
2022/12/12 05:25:56;;;;;;;;;;;-1.80;99.90;;;;;;4956690;29;19930;-76
2022/12/12 05:28:21;;;;;;;;;;;-1.70;99.90;;;;;;4954804;29;19926;-77
2022/12/12 05:30:47;;;;;;;;;;;-0.90;99.90;;;;;;4955987;29;19923;-77
2022/12/12 05:33:12;;;;;;;;;;;-1.70;99.90;;;;;;4955574;29;19926;-77
2022/12/12 05:35:38;;;;;;;;;;;-1.70;99.90;;;;;;4956730;29;19922;-77
2022/12/12 05:38:04;;;;;;;;;;;-0.80;99.90;;;;;;4956833;29;19922;-76
2022/12/12 05:40:29;;;;;;;;;;;-1.70;99.90;;;;;;4955129;28;20009;-76
2022/12/12 05:42:55;;;;;;;;;;;-1.80;99.90;;;;;;4956317;28;19929;-76
2022/12/12 05:45:20;;;;;;;;;;;-1.20;99.90;;;;;;4955449;29;20054;-77
2022/12/12 05:47:46;;;;;;;;;;;0.00;99.90;;;;;;4956113;29;20413;-76
2022/12/12 05:50:12;;;;;;;;;;;-2.00;99.90;;;;;;4957647;28;20001;-77
2022/12/12 05:52:37;;;;;;;;;;;-1.90;99.90;;;;;;4954770;29;20614;-75
2022/12/12 05:55:03;;;;;;;;;;;-1.90;99.90;;;;;;4954522;28;19922;-78
2022/12/12 05:57:29;;;;;;;;;;;-1.90;99.90;;;;;;4955498;29;19922;-75
2022/12/12 05:59:54;;;;;;;;;;;-1.90;99.90;;;;;;4956385;28;19929;-75
2022/12/12 06:02:20;;;;;;;;;;;-2.00;99.90;;;;;;4954761;28;19970;-78
2022/12/12 06:04:46;;;;;;;;;;;-1.90;99.90;;;;;;4956211;29;20367;-80
2022/12/12 06:07:11;;;;;;;;;;;-1.90;99.90;;;;;;4956342;28;19945;-78
2022/12/12 06:09:37;;;;;;;;;;;-1.90;99.90;;;;;;4955473;29;19966;-89
2022/12/12 06:12:03;;;;;;;;;;;-1.90;99.90;;;;;;4954364;28;19922;-79
2022/12/12 06:14:28;;;;;;;;;;;-1.90;99.90;;;;;;4955877;28;19922;-77
2022/12/12 06:16:54;;;;;;;;;;;-1.80;99.90;;;;;;4952709;29;20006;-76
2022/12/12 06:19:22;;;;;;;;;;;-1.80;99.90;;;;;;4954396;28;19922;-82
2022/12/12 06:21:48;;;;;;;;;;;-1.80;99.90;;;;;;4955802;29;20270;-76
2022/12/12 06:24:13;;;;;;;;;;;-1.80;99.90;;;;;;4954761;29;19930;-77
2022/12/12 06:26:39;;;;;;;;;;;-0.10;99.90;;;;;;4955927;28;20374;-76
2022/12/12 06:29:04;;;;;;;;;;;-1.70;99.90;;;;;;4955518;29;19918;-78
2022/12/12 06:31:30;;;;;;;;;;;-1.80;99.90;;;;;;4955246;29;19922;-78
2022/12/12 06:33:56;;;;;;;;;;;-1.60;99.90;;;;;;4953530;29;19922;-78
2022/12/12 06:36:25;;;;;;;;;;;-1.50;99.90;;;;;;4953628;29;19965;-77
2022/12/12 06:38:57;;;;;;;;;;;0.20;99.90;;;;;;4955753;28;19922;-79
2022/12/12 06:41:23;;;;;;;;;;;-1.40;99.90;;;;;;4955229;29;19922;-75
2022/12/12 06:43:49;;;;;;;;;;;-1.40;99.90;;;;;;4955161;29;20281;-75
2022/12/12 06:46:16;;;;;;;;;;;-1.30;99.90;;;;;;4955371;29;19926;-76
2022/12/12 06:48:41;;;;;;;;;;;1.00;99.90;;;;;;4954218;28;19922;-76
2022/12/12 06:51:12;;;;;;;;;;;-1.20;99.90;;;;;;4953944;29;20010;-77
2022/12/12 06:53:38;;;;;;;;;;;-1.20;99.90;;;;;;4953901;28;19969;-78
2022/12/12 06:56:04;;;;;;;;;;;-1.20;99.90;;;;;;4951784;29;19930;-77
2022/12/12 06:58:30;;;;;;;;;;;-1.10;99.90;;;;;;4951126;28;20021;-79
2022/12/12 07:00:58;;;;;;;;;;;1.20;99.90;;;;;;4952269;29;20021;-77
2022/12/12 07:03:29;;;;;;;;;;;-1.00;99.90;;;;;;4952386;29;19923;-79
2022/12/12 07:05:55;;;;;;;;;;;-1.10;99.90;;;;;;4955084;29;19930;-80
2022/12/12 07:08:20;;;;;;;;;;;-1.10;99.90;;;;;;4953545;29;19922;-77
2022/12/12 07:10:49;;;;;;;;;;;-1.00;99.90;;;;;;4952713;29;20378;-77
2022/12/12 07:13:14;;;;;;;;;;;-0.60;99.90;;;;;;4951448;29;20346;-78
2022/12/12 07:15:41;;;;;;;;;;;-1.10;99.90;;;;;;4952660;29;19923;-85
2022/12/12 07:18:06;;;;;;;;;;;-1.20;99.90;;;;;;4953869;28;20013;-77
2022/12/12 07:20:32;;;;;;;;;;;-1.10;99.90;;;;;;4951790;29;20021;-75
2022/12/12 07:22:57;;;;;;;;;;;-1.20;99.90;;;;;;4950359;29;19934;-77
2022/12/12 07:25:23;;;;;;;;;;;-1.10;99.90;;;;;;4953422;29;19930;-75
2022/12/12 07:27:49;;;;;;;;;;;-1.10;99.90;;;;;;4952261;29;19927;-76
2022/12/12 07:30:14;;;;;;;;;;;-1.10;99.90;;;;;;4952987;28;20411;-75
2022/12/12 07:32:40;;;;;;;;;;;-1.10;99.90;;;;;;4953539;29;20389;-75
2022/12/12 07:35:05;;;;;;;;;;;0.70;99.90;;;;;;4954536;29;19929;-76
2022/12/12 07:37:31;;;;;;;;;;;-1.00;99.90;;;;;;4954586;29;19937;-75
2022/12/12 07:39:57;;;;;;;;;;;-1.00;99.90;;;;;;4953027;29;20017;-75
2022/12/12 07:42:22;;;;;;;;;;;-1.00;99.90;;;;;;4953625;29;19922;-76
2022/12/12 07:44:48;;;;;;;;;;;-1.10;99.90;;;;;;4955304;29;19926;-76
2022/12/12 07:47:14;;;;;;;;;;;-1.00;99.90;;;;;;4954156;28;19926;-76
2022/12/12 07:49:40;;;;;;;;;;;-1.00;99.90;;;;;;4953753;29;20429;-75
2022/12/12 07:52:06;;;;;;;;;;;-0.90;99.90;;;;;;4954456;29;20393;-75
2022/12/12 07:54:31;;;;;;;;;;;-0.80;99.90;;;;;;4953168;28;19966;-75
2022/12/12 07:56:57;;;;;;;;;;;-0.80;99.90;;;;;;4953262;29;19929;-75
2022/12/12 07:59:23;;;;;;;;;;;-0.80;99.90;;;;;;4952611;29;19922;-75
2022/12/12 08:01:48;;;;;;;;;;;-0.80;99.90;;;;;;4952591;29;19923;-76
2022/12/12 08:04:14;;;;;;;;;;;-0.80;99.90;;;;;;4954272;29;19961;-76
2022/12/12 08:06:39;;;;;;;;;;;-0.90;99.90;;;;;;4954616;29;19925;-76
2022/12/12 08:09:14;;;;;;;;;;;-0.70;99.90;;;;;;4952461;29;20294;-76
2022/12/12 08:11:40;;;;;;;;;;;0.50;99.90;;;;;;4953396;29;19923;-75
2022/12/12 08:14:06;;;;;;;;;;;-0.60;99.90;;;;;;4954504;29;19981;-76
2022/12/12 08:16:31;;;;;;;;;;;-0.60;99.90;;;;;;4953183;29;20457;-77
2022/12/12 08:18:57;;;;;;;;;;;-0.60;99.90;;;;;;4952704;29;19923;-76
2022/12/12 08:21:23;;;;;;;;;;;-0.50;99.90;;;;;;4953945;28;19930;-77
2022/12/12 08:23:48;;;;;;;;;;;-0.20;99.90;;;;;;4952427;29;20405;-76
2022/12/12 08:26:15;;;;;;;;;;;0.10;99.90;;;;;;4953939;29;20298;-77
2022/12/12 08:28:43;;;;;;;;;;;-0.40;99.90;;;;;;4954582;28;20369;-77
2022/12/12 08:31:09;;;;;;;;;;;1.30;99.90;;;;;;4953621;28;19930;-76
2022/12/12 08:33:35;;;;;;;;;;;-0.40;99.90;;;;;;4952460;29;19941;-77
2022/12/12 08:36:09;;;;;;;;;;;-0.30;99.90;;;;;;4953959;28;20009;-77
2022/12/12 08:38:34;;;;;;;;;;;-0.30;99.90;;;;;;4954015;28;19929;-76
2022/12/12 08:41:00;;;;;;;;;;;-0.30;99.90;;;;;;4954694;28;19922;-77
2022/12/12 08:43:26;;;;;;;;;;;-0.30;99.90;;;;;;4956589;28;19923;-77
2022/12/12 08:45:57;;;;;;;;;;;0.80;99.90;;;;;;4957800;29;20409;-76
2022/12/12 08:48:23;;;;;;;;;;;-0.40;99.90;;;;;;4957669;29;19922;-77
2022/12/12 08:50:52;;;;;;;;;;;-0.30;99.90;;;;;;4955876;29;19922;-77
2022/12/12 08:53:17;;;;;;;;;;;0.00;99.90;;;;;;4957213;28;20018;-77
2022/12/12 08:55:43;;;;;;;;;;;2.40;99.90;;;;;;4956061;28;19922;-76
2022/12/12 08:58:12;;;;;;;;;;;2.20;99.90;;;;;;4956649;28;19926;-76
2022/12/12 09:00:37;;;;;;;;;;;1.20;99.90;;;;;;4956663;29;19922;-76
2022/12/12 09:03:03;;;;;;;;;;;3.50;99.90;;;;;;4955709;29;19927;-76
2022/12/12 09:05:28;;;;;;;;;;;2.40;99.90;;;;;;4955326;29;20282;-76
2022/12/12 09:07:54;;;;;;;;;;;3.20;99.90;;;;;;4956145;28;19923;-76
2022/12/12 09:10:19;;;;;;;;;;;4.90;99.90;;;;;;4955810;29;20025;-76
2022/12/12 09:12:45;;;;;;;;;;;3.90;99.90;;;;;;4955184;29;20057;-76
2022/12/12 09:15:10;;;;;;;;;;;4.10;99.90;;;;;;4956173;29;19923;-76
2022/12/12 09:17:36;;;;;;;;;;;3.80;99.90;;;;;;4956669;29;20413;-76
2022/12/12 09:20:02;;;;;;;;;;;4.30;99.90;;;;;;4955602;29;20406;-75
2022/12/12 09:22:27;;;;;;;;;;;4.90;99.90;;;;;;4956931;28;19922;-76
2022/12/12 09:24:53;;;;;;;;;;;5.60;99.90;;;;;;4955743;29;20251;-76
2022/12/12 09:27:19;;;;;;;;;;;6.50;99.90;;;;;;4956437;29;19973;-76
2022/12/12 09:29:48;;;;;;;;;;;7.10;99.90;;;;;;4957135;28;19922;-76
2022/12/12 09:32:13;;;;;;;;;;;6.40;99.90;;;;;;4955934;29;20382;-76
2022/12/12 09:34:39;;;;;;;;;;;6.80;99.90;;;;;;4955400;29;19928;-76
2022/12/12 09:37:04;;;;;;;;;;;7.10;99.90;;;;;;4955745;28;19926;-76
2022/12/12 09:39:30;;;;;;;;;;;7.50;99.90;;;;;;4955897;29;19930;-74
2022/12/12 09:41:56;;;;;;;;;;;8.50;99.90;;;;;;4957039;29;19922;-75
2022/12/12 09:44:22;;;;;;;;;;;8.60;99.90;;;;;;4956167;28;20449;-75
2022/12/12 09:46:56;;;;;;;;;;;9.00;99.90;;;;;;4954856;29;20486;-75
2022/12/12 09:49:33;;;;;;;;;;;8.90;99.90;;;;;;4956409;29;19930;-75
2022/12/12 09:52:00;;;;;;;;;;;8.90;99.90;;;;;;4955362;29;19974;-75
2022/12/12 09:54:26;;;;;;;;;;;9.10;99.90;;;;;;4954544;28;19922;-75
2022/12/12 09:56:55;;;;;;;;;;;9.10;99.90;;;;;;4954989;29;19969;-75
2022/12/12 09:59:31;;;;;;;;;;;9.30;99.90;;;;;;4956372;29;19961;-75
2022/12/12 10:01:57;;;;;;;;;;;9.40;99.90;;;;;;4955934;28;19981;-75
2022/12/12 10:04:44;;;;;;;;;;;10.00;99.90;;;;;;4956246;29;19922;-75
2022/12/12 10:07:15;;;;;;;;;;;9.90;99.90;;;;;;4955038;28;20285;-75
2022/12/12 10:09:40;;;;;;;;;;;10.00;99.70;;;;;;4955457;28;19957;-75
2022/12/12 10:12:10;;;;;;;;;;;9.90;99.90;;;;;;4956277;29;19981;-75
2022/12/12 10:14:41;;;;;;;;;;;9.80;99.90;;;;;;4954060;29;20362;-76
2022/12/12 10:17:12;;;;;;;;;;;10.10;99.60;;;;;;4954878;29;19929;-74
2022/12/12 10:19:46;;;;;;;;;;;10.10;98.80;;;;;;4955011;29;20008;-75
2022/12/12 10:22:31;;;;;;;;;;;10.00;99.80;;;;;;4955245;28;19923;-75
2022/12/12 10:25:15;;;;;;;;;;;9.90;99.90;;;;;;4944777;29;19926;-75
2022/12/12 10:27:41;;;;;;;;;;;10.10;99.70;;;;;;4954414;29;19923;-75
2022/12/12 10:30:17;;;;;;;;;;;10.30;98.80;;;;;;4955660;28;19966;-75
2022/12/12 10:32:54;;;;;;;;;;;10.20;99.00;;;;;;4955767;28;20017;-75
2022/12/12 10:35:26;;;;;;;;;;;10.10;99.20;;;;;;4955491;28;19922;-76
2022/12/12 10:37:51;;;;;;;;;;;10.20;99.50;;;;;;4954719;28;19926;-75
2022/12/12 10:40:22;;;;;;;;;;;10.30;98.50;;;;;;4955572;29;19977;-75
2022/12/12 10:42:57;;;;;;;;;;;10.50;97.40;;;;;;4954847;29;19973;-75
2022/12/12 10:45:30;;;;;;;;;;;10.20;98.30;;;;;;4955004;29;19922;-75
2022/12/12 10:47:56;;;;;;;;;;;12.40;98.30;;;;;;4955563;29;20278;-75
2022/12/12 10:50:27;;;;;;;;;;;9.90;98.10;;;;;;4953267;29;19922;-75
2022/12/12 10:52:53;;;;;;;;;;;9.70;98.20;;;;;;4955454;29;19930;-75
2022/12/12 10:55:34;;;;;;;;;;;9.80;98.40;;;;;;4955255;29;19926;-75
2022/12/12 10:58:00;;;;;;;;;;;10.10;98.60;;;;;;4953160;29;19981;-75
2022/12/12 11:00:29;;;;;;;;;;;10.20;98.00;;;;;;4955479;29;20013;-75
2022/12/12 11:02:56;;;;;;;;;;;9.90;98.60;;;;;;4955467;29;20017;-75
2022/12/12 11:05:24;;;;;;;;;;;9.50;98.60;;;;;;4954619;28;19922;-75
2022/12/12 11:08:01;;;;;;;;;;;8.90;99.60;;;;;;4955462;29;20297;-75
2022/12/12 11:10:29;;;;;;;;;;;8.80;99.90;;;;;;4954991;29;19922;-75
2022/12/12 11:12:59;;;;;;;;;;;9.00;99.90;;;;;;4953964;29;20444;-75
2022/12/12 11:15:37;;;;;;;;;;;9.30;99.90;;;;;;4953926;28;19945;-75
2022/12/12 11:18:03;;;;;;;;;;;9.80;98.70;;;;;;4954378;29;19929;-75
2022/12/12 11:20:29;;;;;;;;;;;9.60;99.80;;;;;;4954159;29;20317;-75
2022/12/12 11:22:55;;;;;;;;;;;10.10;99.70;;;;;;4954139;29;19925;-75
2022/12/12 11:25:39;;;;;;;;;;;10.60;98.60;;;;;;4954054;28;19929;-75
2022/12/12 11:28:04;;;;;;;;;;;10.90;98.00;;;;;;4955225;29;19922;-75
2022/12/12 11:30:34;;;;;;;;;;;11.20;96.90;;;;;;4954876;29;20009;-75
2022/12/12 11:33:00;;;;;;;;;;;10.80;97.50;;;;;;4952779;29;19973;-75
2022/12/12 11:35:34;;;;;;;;;;;10.40;98.60;;;;;;4953511;29;19922;-75
2022/12/12 11:38:05;;;;;;;;;;;10.60;98.10;;;;;;4955528;28;19961;-75
2022/12/12 11:40:32;;;;;;;;;;;10.70;97.00;;;;;;4953682;28;19922;-75
2022/12/12 11:43:16;;;;;;;;;;;10.90;98.80;;;;;;4953485;29;19926;-74
2022/12/12 11:45:42;;;;;;;;;;;11.00;97.10;;;;;;4953375;29;19966;-75
2022/12/12 11:48:42;;;;;;;;;;;11.00;97.20;;;;;;4953244;29;19976;-75
2022/12/12 11:51:08;;;;;;;;;;;11.20;97.10;;;;;;4913978;29;19923;-75
2022/12/12 11:53:36;;;;;;;;;;;11.40;96.80;;;;;;4945564;29;19926;-75
2022/12/12 11:56:07;;;;;;;;;;;11.50;96.90;;;;;;4953553;29;20397;-75
2022/12/12 11:58:52;;;;;;;;;;;11.70;95.80;;;;;;4952797;29;20388;-77
2022/12/12 12:01:18;;;;;;;;;;;11.40;95.50;;;;;;4953558;29;20282;-77
2022/12/12 12:03:49;;;;;;;;;;;11.20;97.00;;;;;;4954619;29;19922;-77
2022/12/12 12:06:18;;;;;;;;;;;11.50;96.70;;;;;;4954262;29;19926;-78
2022/12/12 12:08:49;;;;;;;;;;;11.70;95.80;;;;;;4952751;29;19922;-77
2022/12/12 12:11:21;;;;;;;;;;;11.50;96.50;;;;;;4953286;28;20386;-77
2022/12/12 12:13:49;;;;;;;;;;;11.10;96.20;;;;;;4954693;29;19922;-77
2022/12/12 12:16:15;;;;;;;;;;;10.90;97.30;;;;;;4952845;28;19996;-77
2022/12/12 12:19:05;;;;;;;;;;;11.10;96.40;;;;;;4958493;29;19995;-77
2022/12/12 12:21:49;;;;;;;;;;;11.00;97.10;;;;;;4957050;29;20065;-77
2022/12/12 12:24:14;;;;;;;;;;;11.00;96.90;;;;;;4958062;28;20010;-77
2022/12/12 12:26:46;;;;;;;;;;;11.20;96.90;;;;;;4957307;29;20350;-78
2022/12/12 12:29:19;;;;;;;;;;;11.50;95.80;;;;;;4957037;28;20020;-78
2022/12/12 12:31:44;;;;;;;;;;;11.50;95.20;;;;;;4958400;28;20263;-78
2022/12/12 12:34:28;;;;;;;;;;;11.40;95.50;;;;;;4958288;28;19922;-78
2022/12/12 12:37:12;;;;;;;;;;;11.20;96.80;;;;;;4956024;28;19972;-78
2022/12/12 12:39:38;;;;;;;;;;;11.50;95.90;;;;;;4957605;29;19935;-78
2022/12/12 12:42:22;;;;;;;;;;;11.40;95.40;;;;;;4956357;29;19922;-77
2022/12/12 12:44:58;;;;;;;;;;;11.10;96.40;;;;;;4957041;29;19932;-78
2022/12/12 12:47:24;;;;;;;;;;;11.20;95.70;;;;;;4957087;28;19918;-78
2022/12/12 12:49:56;;;;;;;;;;;11.00;96.00;;;;;;4955895;28;20362;-78
2022/12/12 12:52:28;;;;;;;;;;;10.70;96.20;;;;;;4956020;29;19977;-78
2022/12/12 12:54:55;;;;;;;;;;;10.50;97.00;;;;;;4957725;29;19927;-78
2022/12/12 12:57:27;;;;;;;;;;;10.00;96.70;;;;;;4956297;29;20290;-78
2022/12/12 12:59:55;;;;;;;;;;;9.30;97.50;;;;;;4956454;29;19922;-78
2022/12/12 13:02:40;;;;;;;;;;;8.80;98.80;;;;;;4957097;28;19925;-78
2022/12/12 13:05:15;;;;;;;;;;;8.90;99.30;;;;;;4956723;28;20382;-78
2022/12/12 13:07:41;;;;;;;;;;;8.80;99.90;;;;;;4957402;28;19918;-78
2022/12/12 13:10:09;;;;;;;;;;;9.20;99.80;;;;;;4956728;29;20267;-79
2022/12/12 13:12:40;;;;;;;;;;;8.90;99.80;;;;;;4955729;29;19925;-78
2022/12/12 13:15:14;;;;;;;;;;;8.80;99.10;;;;;;4956243;29;19929;-79
2022/12/12 13:17:45;;;;;;;;;;;8.30;99.90;;;;;;4955268;28;20370;-78
2022/12/12 13:20:16;;;;;;;;;;;8.10;99.90;;;;;;4956987;29;19922;-77
2022/12/12 13:23:00;;;;;;;;;;;8.00;99.90;;;;;;4955440;28;20009;-78
2022/12/12 13:25:37;;;;;;;;;;;7.90;99.90;;;;;;4954794;29;19923;-78
2022/12/12 13:28:05;;;;;;;;;;;7.40;99.90;;;;;;4954551;28;19929;-77
2022/12/12 13:30:43;;;;;;;;;;;6.80;99.90;;;;;;4956571;28;20370;-78
2022/12/12 13:33:35;;;;;;;;;;;6.40;99.90;;;;;;4956168;29;19926;-78
2022/12/12 13:36:07;;;;;;;;;;;5.90;99.90;;;;;;4955961;29;20024;-78
2022/12/12 13:38:33;;;;;;;;;;;5.50;99.90;;;;;;4955734;28;20292;-78
2022/12/12 13:41:00;;;;;;;;;;;5.10;99.90;;;;;;4957196;28;19926;-78
2022/12/12 13:43:32;;;;;;;;;;;5.10;99.90;;;;;;4956479;29;19926;-78
2022/12/12 13:46:18;;;;;;;;;;;4.50;99.90;;;;;;4956765;29;19923;-79
2022/12/12 13:48:46;;;;;;;;;;;4.40;99.90;;;;;;4955828;29;20322;-78
2022/12/12 13:51:29;;;;;;;;;;;5.90;99.90;;;;;;4956195;29;20011;-79
2022/12/12 13:54:26;;;;;;;;;;;3.80;99.90;;;;;;4955900;29;20021;-80
2022/12/12 13:56:54;;;;;;;;;;;3.60;99.90;;;;;;4946502;28;19922;-81
2022/12/12 13:59:20;;;;;;;;;;;3.40;99.90;;;;;;4947667;29;19923;-81
2022/12/12 14:01:45;;;;;;;;;;;3.10;99.90;;;;;;4950444;29;19978;-81
2022/12/12 14:04:26;;;;;;;;;;;2.90;99.90;;;;;;4937007;29;19923;-81
2022/12/12 14:07:01;;;;;;;;;;;2.80;99.90;;;;;;4936264;29;19965;-80
2022/12/12 14:09:29;;;;;;;;;;;2.70;99.90;;;;;;4952892;29;19923;-79
2022/12/12 14:12:02;;;;;;;;;;;4.00;99.90;;;;;;4956076;28;19929;-79
2022/12/12 14:14:27;;;;;;;;;;;2.40;99.90;;;;;;4954509;28;20393;-79
2022/12/12 14:16:54;;;;;;;;;;;2.50;99.90;;;;;;4955373;29;19957;-79
2022/12/12 14:19:24;;;;;;;;;;;2.30;99.90;;;;;;4954514;29;19932;-81
2022/12/12 14:21:49;;;;;;;;;;;2.10;99.90;;;;;;4954942;29;20320;-79
2022/12/12 14:24:33;;;;;;;;;;;2.50;99.90;;;;;;4953240;29;19922;-80
2022/12/12 14:27:03;;;;;;;;;;;2.00;99.90;;;;;;4954253;29;19931;-80
2022/12/12 14:29:37;;;;;;;;;;;1.80;99.90;;;;;;4953600;29;19989;-81
2022/12/12 14:32:11;;;;;;;;;;;1.80;99.90;;;;;;4955445;29;19922;-79
2022/12/12 14:34:46;;;;;;;;;;;1.90;99.90;;;;;;4953283;29;20349;-78
2022/12/12 14:37:34;;;;;;;;;;;1.90;99.90;;;;;;4955154;29;20389;-77
2022/12/12 14:40:02;;;;;;;;;;;1.90;99.90;;;;;;4934499;29;19930;-77
2022/12/12 14:42:28;;;;;;;;;;;3.20;99.90;;;;;;4953742;28;19918;-77
2022/12/12 14:44:54;;;;;;;;;;;1.60;99.90;;;;;;4955173;28;19922;-77
2022/12/12 14:47:19;;;;;;;;;;;1.50;99.90;;;;;;4955334;28;19918;-80
2022/12/12 14:49:45;;;;;;;;;;;1.40;99.90;;;;;;4952822;29;19946;-82
2022/12/12 14:52:16;;;;;;;;;;;1.80;99.90;;;;;;4952892;29;19923;-76
2022/12/12 14:54:42;;;;;;;;;;;1.20;99.90;;;;;;4954005;29;19922;-78